Petersburgh, NY (12138)

3:36 PM EST on March 05, 2015 (GMT -0500)
APRSWXNET Grafton NY US | Change Station
CLOSE
Current Station
Personal Weather Station
Location: Petersburgh, NY
Elevation: 1650 ft
Nearby Weather Stations

Elev 1650 ft 42.73 °N, 73.41 °W | Updated 32 minutes ago

Mostly Cloudy
Mostly Cloudy
14 °F
Feels Like 14 °F
N
0
Wind Variable Wind from South
Gusts 5.0 mph

Today
High -- | Low -- °F
--% Chance of Precip.
Yesterday
High -- | Low -- °F
Precip. -- in
6:23 AM 5:47 PM
Full, 100% visible
Pressure 30.16 in
Visibility 10.0 miles
Clouds Overcast 10000 ft
Windchill 14 °F
Dew Point 4 °F
Humidity 63%
Rainfall in
Snow Depth Not available.
UV 1 out of 12
Pollen .40 out of 12
Air Quality Not available.
Flu Activity Not available.
METAR KAQW 051952Z AUTO VRB05KT 10SM OVC100 M07/M17 A3013 RMK AO2 SLP213 T10671167

More Conditions Fewer Conditions

Pressure 30.16 in
Visibility 10.0 miles
Clouds Overcast 10000 ft
Windchill 14 °F
Dew Point 4 °F
Humidity 63%
Rainfall in
Snow Depth Not available.
UV 1 out of 12
Pollen .40 out of 12
Air Quality Not available.
Flu Activity Not available.
METAR KAQW 051952Z AUTO VRB05KT 10SM OVC100 M07/M17 A3013 RMK AO2 SLP213 T10671167

More Conditions Fewer Conditions

10-Day Weather Forecast

Almanac

Astronomy

Mar. 05, 2015 Rise Set
Actual Time
Civil Twilight
Nautical Twilight
Astronomical Twilight
Moon
Length of Visible Light
Length of Day
Tomorrow will be .
, % of the Moon is Illuminated

Today's Extremes

State Highs State Lows

Community

WunderPhotos

Upload Photos

1,802,952 photos uploaded!

WunderBlogs® & News

Nearby

Air Quality

  Air Quality AQ Index Pollutant
Not available.

Snow Depth

Station Depth Elevation

Earthquake Activity

City Distance Mag. Time & Date
Minimum magnitude displayed is 2.5.

Coastal Water Temperatures

Place Temperature

Nearby Weather Stations